Time;durP1;ratioP1;P1;durP2;ratioP2;P2;SDS_P1;SDS_P2;PMS_P1;PMS_P2;Temp;Humidity;BMP_temperature;BMP_pressure;BME280_temperature;BME280_humidity;BME280_pressure;Samples;Min_cycle;Max_cycle;Signal;HPM_P1;HPM_P2
2021/09/20 00:02:20;;;;;;;4.37;3.97;;;;;;;13.12;65.23;101739.09;5081606;28;20211;-62
2021/09/20 00:04:45;;;;;;;4.77;4.20;;;;;;;12.89;66.02;101743.09;5080911;28;20169;-62
2021/09/20 00:07:10;;;;;;;4.53;4.13;;;;;;;13.52;64.39;101736.19;5081025;28;20177;-62
2021/09/20 00:09:36;;;;;;;4.30;3.90;;;;;;;13.22;65.07;101742.75;5081178;28;20411;-62
2021/09/20 00:12:01;;;;;;;4.63;4.13;;;;;;;13.10;65.18;101740.81;5081067;28;20596;-62
2021/09/20 00:14:27;;;;;;;5.23;3.90;;;;;;;12.95;65.75;101743.19;5080800;28;20433;-62
2021/09/20 00:16:52;;;;;;;4.37;3.87;;;;;;;13.78;63.39;101743.53;5063870;28;20242;-61
2021/09/20 00:19:17;;;;;;;4.37;3.97;;;;;;;13.05;65.72;101742.47;5063343;28;20479;-62
2021/09/20 00:21:43;;;;;;;4.67;4.27;;;;;;;13.02;65.07;101752.03;5080813;28;20197;-62
2021/09/20 00:24:08;;;;;;;4.50;4.10;;;;;;;13.36;64.69;101742.09;5080776;28;20200;-62
2021/09/20 00:26:33;;;;;;;8.13;3.90;;;;;;;13.52;64.44;101749.31;5080682;28;20177;-62
2021/09/20 00:28:59;;;;;;;4.50;4.10;;;;;;;13.23;64.91;101754.06;5080647;28;20204;-62
2021/09/20 00:31:24;;;;;;;4.50;4.10;;;;;;;12.95;65.44;101748.44;5080928;28;20191;-62
2021/09/20 00:33:49;;;;;;;5.87;3.97;;;;;;;13.74;63.03;101749.59;5080340;28;20165;-62
2021/09/20 00:36:15;;;;;;;5.97;4.60;;;;;;;12.98;65.75;101753.72;5080374;28;20203;-62
2021/09/20 00:38:40;;;;;;;4.60;4.20;;;;;;;13.85;63.33;101752.34;5080920;28;20172;-62
2021/09/20 00:41:05;;;;;;;5.53;4.20;;;;;;;13.52;63.43;101751.03;5080639;28;20165;-62
2021/09/20 00:43:31;;;;;;;5.23;4.13;;;;;;;13.20;64.88;101759.28;5080245;28;20173;-62
2021/09/20 00:45:56;;;;;;;4.20;3.90;;;;;;;12.93;65.85;101758.84;5080748;28;20161;-62
2021/09/20 00:48:21;;;;;;;4.73;3.80;;;;;;;12.89;65.70;101753.56;5080182;28;20169;-63
2021/09/20 00:50:47;;;;;;;4.30;3.90;;;;;;;13.48;63.75;101756.22;5080080;28;20177;-62
2021/09/20 00:53:13;;;;;;;5.93;3.73;;;;;;;13.37;64.36;101759.53;5080390;28;20184;-62
2021/09/20 00:55:40;;;;;;;6.47;4.10;;;;;;;12.73;66.58;101758.53;5079947;28;20173;-62
2021/09/20 00:58:08;;;;;;;3.80;3.50;;;;;;;13.03;65.29;101767.75;5079269;28;20524;-63
2021/09/20 01:00:33;;;;;;;4.10;3.80;;;;;;;12.90;65.83;101761.44;5080185;28;20408;-62
2021/09/20 01:02:58;;;;;;;4.67;4.27;;;;;;;13.21;64.69;101756.69;5079954;28;20390;-62
2021/09/20 01:05:24;;;;;;;5.07;3.90;;;;;;;13.09;64.83;101759.13;5079714;28;20188;-62
2021/09/20 01:07:49;;;;;;;4.30;3.87;;;;;;;13.17;64.85;101757.50;5085718;28;20449;-62
2021/09/20 01:10:14;;;;;;;4.23;3.83;;;;;;;12.99;64.44;101755.47;5081012;28;20184;-62
2021/09/20 01:12:40;;;;;;;4.73;3.57;;;;;;;13.19;64.43;101757.50;5079723;28;20196;-63
2021/09/20 01:15:06;;;;;;;4.03;3.73;;;;;;;12.82;65.43;101754.31;5079918;28;20169;-62
2021/09/20 01:17:31;;;;;;;4.57;4.17;;;;;;;13.08;65.12;101760.88;5079494;28;20214;-62
2021/09/20 01:19:56;;;;;;;4.20;3.80;;;;;;;12.82;65.32;101757.81;5079687;28;20506;-62
2021/09/20 01:22:22;;;;;;;5.43;4.27;;;;;;;12.90;64.85;101756.19;5079801;28;20176;-62
2021/09/20 01:24:48;;;;;;;4.50;4.10;;;;;;;12.97;63.97;101757.19;5078887;28;20226;-62
2021/09/20 01:27:16;;;;;;;7.07;3.87;;;;;;;12.68;65.22;101764.53;5079294;28;20419;-62
2021/09/20 01:29:42;;;;;;;4.63;3.80;;;;;;;12.98;64.88;101764.19;5079801;28;20461;-63
2021/09/20 01:32:07;;;;;;;4.33;3.70;;;;;;;12.87;64.63;101760.53;5081144;28;20429;-62
2021/09/20 01:34:34;;;;;;;4.40;3.53;;;;;;;12.77;64.42;101757.75;5080440;28;20173;-62
2021/09/20 01:37:00;;;;;;;4.13;3.73;;;;;;;12.50;65.68;101762.47;5062488;28;20202;-63
2021/09/20 01:39:28;;;;;;;4.10;3.70;;;;;;;12.57;65.57;101759.09;5079175;28;20544;-62
2021/09/20 01:41:53;;;;;;;4.30;3.90;;;;;;;12.62;65.37;101754.84;5079288;28;20443;-63
2021/09/20 01:44:19;;;;;;;5.60;4.10;;;;;;;12.78;64.71;101764.72;5079382;28;20826;-63
2021/09/20 01:46:47;;;;;;;5.80;3.60;;;;;;;12.79;64.72;101768.22;5079017;28;20171;-62
2021/09/20 01:49:12;;;;;;;4.40;4.00;;;;;;;13.00;64.41;101767.69;5079099;28;20260;-62
2021/09/20 01:51:37;;;;;;;4.33;4.03;;;;;;;12.63;65.36;101767.94;5079022;28;20562;-65
2021/09/20 01:54:04;;;;;;;5.43;4.20;;;;;;;12.46;65.25;101769.38;5078986;28;20177;-63
2021/09/20 01:56:30;;;;;;;4.53;4.13;;;;;;;12.61;65.01;101763.53;5079139;28;20200;-62
2021/09/20 01:58:55;;;;;;;4.30;3.90;;;;;;;12.80;64.97;101757.78;5078704;28;20406;-62
2021/09/20 02:01:21;;;;;;;5.33;3.90;;;;;;;12.76;64.72;101761.22;5078817;28;20465;-62
2021/09/20 02:03:47;;;;;;;3.73;3.43;;;;;;;12.51;64.97;101759.03;5079093;28;20194;-62
2021/09/20 02:06:12;;;;;;;4.47;4.07;;;;;;;12.57;64.94;101754.78;5078803;28;20194;-62
2021/09/20 02:08:37;;;;;;;5.27;4.10;;;;;;;12.63;64.83;101756.63;5078726;28;20169;-62
2021/09/20 02:11:04;;;;;;;5.67;3.87;;;;;;;12.79;64.60;101747.28;5079071;28;20577;-61
2021/09/20 02:13:29;;;;;;;4.10;3.70;;;;;;;12.41;65.34;101747.50;5078496;28;20415;-62
2021/09/20 02:15:54;;;;;;;4.37;4.00;;;;;;;12.81;64.72;101748.19;5078446;28;20411;-63
2021/09/20 02:18:20;;;;;;;4.73;4.33;;;;;;;12.71;64.58;101756.75;5079022;28;20164;-62
2021/09/20 02:20:45;;;;;;;4.40;4.00;;;;;;;12.87;64.01;101744.81;5078513;28;20173;-61
2021/09/20 02:23:12;;;;;;;4.70;4.13;;;;;;;12.75;64.76;101751.59;5078144;28;20177;-62
2021/09/20 02:25:37;;;;;;;4.57;4.17;;;;;;;12.67;64.87;101753.19;5078743;28;20161;-62
2021/09/20 02:28:03;;;;;;;5.23;4.20;;;;;;;12.79;64.90;101756.00;5078420;28;20415;-62
2021/09/20 02:30:28;;;;;;;4.37;3.97;;;;;;;12.70;64.69;101757.59;5078522;28;20199;-62
2021/09/20 02:32:53;;;;;;;4.57;3.93;;;;;;;12.70;64.47;101758.47;5078590;28;20430;-62
2021/09/20 02:35:19;;;;;;;4.60;4.10;;;;;;;12.63;64.78;101759.22;5078239;28;20171;-62
2021/09/20 02:37:44;;;;;;;4.87;4.37;;;;;;;13.12;63.19;101756.53;5078237;28;20177;-62
2021/09/20 02:40:10;;;;;;;4.43;3.87;;;;;;;13.22;63.53;101754.94;5078807;28;20169;-62
2021/09/20 02:42:36;;;;;;;4.10;3.73;;;;;;;12.94;63.73;101754.53;5078170;28;20476;-61
2021/09/20 02:45:03;;;;;;;4.20;3.80;;;;;;;13.05;63.63;101760.78;5078036;28;20400;-62
2021/09/20 02:47:28;;;;;;;5.57;4.30;;;;;;;12.96;64.10;101758.03;5078562;28;20247;-63
2021/09/20 02:49:53;;;;;;;4.57;4.03;;;;;;;12.87;64.19;101765.75;5078172;28;20432;-62
2021/09/20 02:52:19;;;;;;;4.73;4.27;;;;;;;13.66;62.39;101765.19;5077911;28;20617;-62
2021/09/20 02:54:44;;;;;;;4.87;4.40;;;;;;;13.26;62.84;101765.50;5078368;28;20287;-64
2021/09/20 02:57:09;;;;;;;4.50;4.10;;;;;;;12.94;64.10;101765.84;5078063;28;20442;-62
2021/09/20 02:59:35;;;;;;;4.90;4.50;;;;;;;12.82;64.35;101773.50;5078039;28;20576;-62
2021/09/20 03:02:00;;;;;;;4.30;3.90;;;;;;;12.79;64.24;101769.09;5078348;28;20171;-62
2021/09/20 03:04:25;;;;;;;4.60;4.10;;;;;;;13.10;63.73;101769.59;5077921;28;20165;-62
2021/09/20 03:06:50;;;;;;;4.60;4.00;;;;;;;13.02;63.95;101771.22;5078141;28;20165;-62
2021/09/20 03:09:16;;;;;;;5.07;4.57;;;;;;;12.74;64.58;101767.25;5078372;28;20546;-63
2021/09/20 03:11:41;;;;;;;8.03;5.80;;;;;;;13.35;63.28;101767.34;5077830;28;20279;-62
2021/09/20 03:14:06;;;;;;;5.97;5.43;;;;;;;13.64;62.37;101769.56;5077653;28;20169;-63
2021/09/20 03:16:32;;;;;;;7.00;6.17;;;;;;;13.61;62.31;101767.78;5078133;28;20464;-62
2021/09/20 03:18:57;;;;;;;10.23;7.67;;;;;;;13.64;61.69;101772.19;5077895;28;20200;-62
2021/09/20 03:21:23;;;;;;;12.43;9.20;;;;;;;13.74;62.16;101767.94;5060572;28;20546;-62
2021/09/20 03:23:50;;;;;;;16.70;11.40;;;;;;;13.90;62.04;101775.13;5060219;28;20168;-62
2021/09/20 03:26:15;;;;;;;8.83;7.57;;;;;;;13.67;62.03;101771.34;5077694;28;20571;-62
2021/09/20 03:28:41;;;;;;;5.10;4.60;;;;;;;13.47;62.26;101780.66;5078379;28;20509;-64
2021/09/20 03:31:06;;;;;;;5.87;4.87;;;;;;;13.27;63.29;101784.69;5079588;28;20220;-62
2021/09/20 03:33:31;;;;;;;6.20;4.40;;;;;;;13.21;63.42;101776.75;5080247;28;20180;-63
2021/09/20 03:35:56;;;;;;;4.90;4.50;;;;;;;13.33;63.36;101782.19;5082489;28;20176;-63
2021/09/20 03:38:22;;;;;;;5.40;4.90;;;;;;;13.67;62.47;101779.19;5081888;28;20215;-62
2021/09/20 03:40:47;;;;;;;5.27;4.87;;;;;;;13.66;62.15;101783.53;5081482;28;20199;-62
2021/09/20 03:43:12;;;;;;;4.77;4.37;;;;;;;13.39;63.23;101778.78;5081487;28;20172;-62
2021/09/20 03:45:38;;;;;;;4.30;3.90;;;;;;;13.32;63.60;101786.50;5081713;28;20170;-63
2021/09/20 03:48:03;;;;;;;5.23;4.73;;;;;;;13.14;63.63;101789.75;5081434;28;20195;-62
2021/09/20 03:50:29;;;;;;;4.20;3.90;;;;;;;12.76;64.94;101797.84;5082394;28;20583;-62
2021/09/20 03:52:54;;;;;;;6.07;4.87;;;;;;;13.18;64.30;101795.91;5083506;28;20189;-63
2021/09/20 03:55:20;;;;;;;4.60;4.20;;;;;;;13.71;61.83;101792.34;5081688;28;20165;-63
2021/09/20 03:57:45;;;;;;;4.57;4.17;;;;;;;13.22;62.97;101796.81;5081203;28;20220;-62
2021/09/20 04:00:11;;;;;;;4.33;4.03;;;;;;;12.83;64.63;101798.81;5081895;28;20425;-63
2021/09/20 04:02:36;;;;;;;5.17;4.73;;;;;;;12.73;65.05;101789.94;5081216;28;20269;-62
2021/09/20 04:05:02;;;;;;;5.10;4.60;;;;;;;12.64;65.86;101801.09;5080980;28;20717;-63
2021/09/20 04:07:28;;;;;;;6.60;4.60;;;;;;;12.85;64.67;101804.09;5064075;28;20259;-62
2021/09/20 04:09:54;;;;;;;4.73;4.33;;;;;;;12.71;65.39;101802.09;5080968;28;20238;-62
2021/09/20 04:12:19;;;;;;;5.40;5.00;;;;;;;13.52;62.94;101806.03;5080783;28;20437;-64
2021/09/20 04:14:44;;;;;;;5.30;4.80;;;;;;;12.78;64.69;101805.72;5081042;28;20243;-62
2021/09/20 04:17:09;;;;;;;5.00;4.50;;;;;;;12.70;65.72;101802.09;5080899;28;20473;-62
2021/09/20 04:19:35;;;;;;;5.30;4.80;;;;;;;12.76;65.28;101808.31;5081012;28;20176;-62
2021/09/20 04:22:01;;;;;;;6.43;4.87;;;;;;;13.74;62.26;101804.63;5081223;28;20196;-62
2021/09/20 04:24:26;;;;;;;6.20;5.60;;;;;;;13.32;63.71;101809.22;5080527;28;20173;-62
2021/09/20 04:26:52;;;;;;;5.30;4.87;;;;;;;12.85;64.61;101809.31;5080627;28;20397;-62
2021/09/20 04:29:17;;;;;;;5.30;4.80;;;;;;;13.14;64.49;101802.84;5081342;28;20523;-62
2021/09/20 04:31:43;;;;;;;6.27;5.67;;;;;;;13.51;63.59;101812.16;5080443;28;20251;-62
2021/09/20 04:34:08;;;;;;;5.47;4.93;;;;;;;12.79;64.72;101815.34;5080352;28;20177;-63
2021/09/20 04:36:33;;;;;;;5.27;4.87;;;;;;;12.71;65.32;101811.69;5080827;28;20410;-62
2021/09/20 04:38:58;;;;;;;5.57;4.80;;;;;;;12.43;66.17;101819.03;5080420;28;20165;-62
2021/09/20 04:41:24;;;;;;;5.57;5.07;;;;;;;12.30;66.51;101818.78;5080415;28;20168;-62
2021/09/20 04:43:49;;;;;;;5.73;5.23;;;;;;;12.40;66.29;101817.22;5080679;28;20169;-63
2021/09/20 04:46:14;;;;;;;5.67;5.17;;;;;;;12.41;65.81;101829.44;5079964;28;20164;-62
2021/09/20 04:48:40;;;;;;;5.43;4.80;;;;;;;12.74;65.48;101822.22;5080299;28;20434;-63
2021/09/20 04:51:06;;;;;;;8.40;4.73;;;;;;;12.69;65.19;101823.84;5080201;28;20212;-63
2021/09/20 04:53:31;;;;;;;5.73;5.33;;;;;;;13.30;63.08;101834.50;5080107;28;20382;-63
2021/09/20 04:55:57;;;;;;;5.70;5.23;;;;;;;13.13;63.85;101826.38;5080221;28;20202;-63
2021/09/20 04:58:22;;;;;;;7.00;5.53;;;;;;;13.04;63.35;101829.72;5079973;28;20216;-63
2021/09/20 05:00:47;;;;;;;5.97;5.23;;;;;;;12.46;65.37;101843.50;5079990;28;20421;-62
2021/09/20 05:03:12;;;;;;;6.07;5.57;;;;;;;13.15;63.35;101840.34;5080265;28;20191;-62
2021/09/20 05:05:38;;;;;;;5.53;5.03;;;;;;;12.41;65.65;101841.66;5079834;28;20505;-62
2021/09/20 05:08:04;;;;;;;7.10;5.47;;;;;;;12.29;65.53;101837.94;5079797;28;20176;-62
2021/09/20 05:10:29;;;;;;;5.47;4.80;;;;;;;12.30;65.72;101844.94;5080442;28;20169;-62
2021/09/20 05:12:55;;;;;;;6.60;5.80;;;;;;;12.55;65.07;101852.38;5080067;28;20283;-63
2021/09/20 05:15:20;;;;;;;5.63;5.13;;;;;;;12.83;64.17;101848.56;5080082;28;20272;-63
2021/09/20 05:17:46;;;;;;;5.30;4.90;;;;;;;12.42;66.16;101854.75;5079992;28;20169;-63
2021/09/20 05:20:12;;;;;;;6.20;5.60;;;;;;;12.58;65.04;101857.66;5079657;28;20168;-62
2021/09/20 05:22:38;;;;;;;5.30;4.90;;;;;;;13.09;63.07;101856.84;5079523;28;20176;-62
2021/09/20 05:25:04;;;;;;;5.90;5.40;;;;;;;12.34;64.56;101856.34;5082939;28;20442;-62
2021/09/20 05:27:29;;;;;;;8.80;6.20;;;;;;;12.61;64.28;101862.94;5079654;28;20188;-62
2021/09/20 05:29:56;;;;;;;6.03;5.50;;;;;;;12.24;64.58;101867.44;5079287;28;20398;-64
2021/09/20 05:32:21;;;;;;;6.00;5.40;;;;;;;12.40;64.78;101864.28;5079903;28;20189;-63
2021/09/20 05:34:47;;;;;;;6.70;5.37;;;;;;;12.57;64.29;101866.34;5061736;28;20477;-63
2021/09/20 05:37:12;;;;;;;6.07;5.20;;;;;;;12.63;63.38;101869.09;5062027;28;20261;-62
2021/09/20 05:39:38;;;;;;;6.20;5.70;;;;;;;12.98;61.97;101864.50;5092437;28;20166;-61
2021/09/20 05:42:03;;;;;;;6.47;5.13;;;;;;;13.00;62.36;101855.81;5081422;28;20455;-62
2021/09/20 05:44:28;;;;;;;6.00;5.00;;;;;;;12.87;61.78;101859.97;5099004;28;20157;-62
2021/09/20 05:46:54;;;;;;;5.23;4.73;;;;;;;12.74;60.96;101867.56;5099779;28;20172;-62
2021/09/20 05:49:19;;;;;;;6.57;5.37;;;;;;;13.16;60.56;101870.06;5099112;28;20487;-63
2021/09/20 05:51:44;;;;;;;6.07;5.00;;;;;;;13.04;61.60;101866.34;5098795;28;20473;-62
2021/09/20 05:54:10;;;;;;;7.37;5.70;;;;;;;13.50;60.15;101862.78;5081949;28;20164;-62
2021/09/20 05:56:36;;;;;;;6.10;5.20;;;;;;;13.66;59.52;101864.78;5098287;28;20168;-62
2021/09/20 05:59:02;;;;;;;8.73;5.27;;;;;;;13.03;60.80;101872.47;5099090;28;20208;-62
2021/09/20 06:01:27;;;;;;;5.37;4.90;;;;;;;12.94;59.60;101872.31;5099458;28;20493;-63
2021/09/20 06:03:52;;;;;;;7.13;4.80;;;;;;;12.84;60.12;101876.50;5099054;28;20410;-61
2021/09/20 06:06:18;;;;;;;6.87;5.37;;;;;;;13.68;58.06;101873.56;5099255;28;20185;-62
2021/09/20 06:08:43;;;;;;;5.63;5.00;;;;;;;13.88;57.10;101870.31;5099193;28;20164;-62
2021/09/20 06:11:11;;;;;;;5.60;5.10;;;;;;;13.80;58.11;101863.25;5098955;28;20171;-63
2021/09/20 06:13:36;;;;;;;6.93;4.90;;;;;;;14.36;56.92;101861.34;5098654;28;20224;-62
2021/09/20 06:16:01;;;;;;;4.80;4.40;;;;;;;14.03;57.37;101870.56;5099161;28;20866;-62
2021/09/20 06:18:27;;;;;;;6.87;5.00;;;;;;;14.05;56.75;101868.81;5098923;28;20519;-63
2021/09/20 06:20:52;;;;;;;6.50;4.43;;;;;;;14.10;57.21;101867.16;5098091;28;20222;-63
2021/09/20 06:23:17;;;;;;;5.50;5.00;;;;;;;13.91;57.95;101870.38;5098568;28;20168;-62
2021/09/20 06:25:42;;;;;;;6.07;4.57;;;;;;;13.58;58.61;101866.41;5097168;28;20234;-62
2021/09/20 06:28:08;;;;;;;5.37;4.87;;;;;;;13.76;58.41;101876.25;5098108;28;20196;-61
2021/09/20 06:30:34;;;;;;;5.53;4.90;;;;;;;13.50;58.74;101871.50;5098501;28;20179;-61
2021/09/20 06:32:59;;;;;;;5.23;4.73;;;;;;;13.23;60.07;101877.16;5098355;28;20212;-61
2021/09/20 06:35:25;;;;;;;5.40;4.90;;;;;;;13.91;58.47;101875.59;5098179;28;20590;-61
2021/09/20 06:37:50;;;;;;;5.47;4.97;;;;;;;13.46;58.71;101872.31;5098745;28;20165;-62
2021/09/20 06:40:15;;;;;;;7.47;5.10;;;;;;;13.77;58.24;101875.41;5098434;28;20248;-62
2021/09/20 06:42:41;;;;;;;6.10;4.50;;;;;;;13.27;59.21;101881.59;5098316;28;20591;-62
2021/09/20 06:45:07;;;;;;;5.20;4.70;;;;;;;13.43;59.16;101881.00;5098709;28;20517;-62
2021/09/20 06:47:33;;;;;;;8.10;5.17;;;;;;;13.92;58.32;101877.38;5098267;28;20483;-62
2021/09/20 06:49:58;;;;;;;6.67;5.10;;;;;;;14.03;57.57;101880.16;5098244;28;20488;-63
2021/09/20 06:52:24;;;;;;;5.23;4.73;;;;;;;14.09;56.74;101883.72;5097933;28;20319;-62
2021/09/20 06:54:49;;;;;;;5.30;4.80;;;;;;;13.56;58.27;101878.63;5097991;28;20233;-62
2021/09/20 06:57:15;;;;;;;6.70;4.80;;;;;;;14.23;56.37;101883.91;5098463;28;20195;-61
2021/09/20 06:59:40;;;;;;;5.67;5.17;;;;;;;14.46;56.06;101881.59;5097778;28;20534;-63
2021/09/20 07:02:06;;;;;;;5.40;4.90;;;;;;;14.43;56.23;101880.66;5098167;28;20206;-62
2021/09/20 07:04:32;;;;;;;6.90;5.20;;;;;;;14.51;55.53;101881.63;5098519;28;20169;-62
2021/09/20 07:06:58;;;;;;;9.13;5.70;;;;;;;15.10;54.00;101887.53;5097897;28;20172;-62
2021/09/20 07:09:23;;;;;;;7.03;5.33;;;;;;;15.49;52.63;101887.00;5102201;28;20175;-62
2021/09/20 07:11:48;;;;;;;7.20;6.50;;;;;;;15.87;52.17;101876.75;5102124;28;20211;-63
2021/09/20 07:14:14;;;;;;;5.80;5.30;;;;;;;15.46;53.13;101886.09;5102097;28;20219;-63
2021/09/20 07:16:40;;;;;;;6.10;5.43;;;;;;;14.05;56.79;101888.94;5102266;28;20228;-63
2021/09/20 07:19:06;;;;;;;5.43;4.63;;;;;;;14.88;55.21;101889.06;5102130;28;20255;-63
2021/09/20 07:21:31;;;;;;;5.90;4.93;;;;;;;14.77;55.44;101887.19;5102171;28;20446;-63
2021/09/20 07:23:57;;;;;;;4.90;4.40;;;;;;;15.15;54.41;101888.44;5101472;28;20164;-62
2021/09/20 07:26:25;;;;;;;6.20;4.50;;;;;;;14.55;54.09;101891.31;5091002;28;20196;-63
2021/09/20 07:28:50;;;;;;;4.77;4.37;;;;;;;14.46;55.56;101891.19;5081607;28;20161;-63
2021/09/20 07:31:16;;;;;;;5.57;5.07;;;;;;;14.63;55.73;101891.44;5080441;28;20832;-63
2021/09/20 07:33:42;;;;;;;5.00;4.60;;;;;;;15.08;54.30;101882.25;5081864;28;20435;-65
2021/09/20 07:36:07;;;;;;;5.07;4.57;;;;;;;15.74;52.08;101884.53;5063769;28;20169;-65
2021/09/20 07:38:33;;;;;;;4.90;4.50;;;;;;;14.98;53.97;101885.69;5081472;28;20431;-64
2021/09/20 07:40:59;;;;;;;6.07;5.30;;;;;;;15.79;52.57;101882.81;5081473;28;20161;-64
2021/09/20 07:43:25;;;;;;;7.00;5.77;;;;;;;15.49;53.72;101897.50;5081282;28;20418;-63
2021/09/20 07:45:50;;;;;;;7.27;5.30;;;;;;;15.63;53.49;101899.38;5081312;28;20403;-62
2021/09/20 07:48:16;;;;;;;7.40;6.20;;;;;;;16.30;52.00;101900.66;5081547;28;20227;-64
2021/09/20 07:50:41;;;;;;;5.27;4.80;;;;;;;15.00;53.85;101915.44;5081015;28;20177;-62
2021/09/20 07:53:06;;;;;;;6.27;5.17;;;;;;;15.09;54.76;101912.03;5080945;28;20262;-63
2021/09/20 07:55:35;;;;;;;6.90;4.90;;;;;;;15.21;54.61;101912.16;5081238;28;20196;-62
2021/09/20 07:58:03;;;;;;;5.80;5.20;;;;;;;15.49;53.07;101918.53;5085911;28;20169;-62
2021/09/20 08:00:28;;;;;;;5.33;4.83;;;;;;;16.03;52.19;101914.53;5071106;28;20433;-63
2021/09/20 08:02:54;;;;;;;6.13;4.40;;;;;;;15.79;52.34;101918.72;5072861;28;20771;-63
2021/09/20 08:05:19;;;;;;;5.60;5.00;;;;;;;15.87;52.42;101917.09;5091394;28;20191;-65
2021/09/20 08:07:44;;;;;;;5.80;5.20;;;;;;;15.97;52.51;101920.66;5095292;28;20196;-66
2021/09/20 08:10:10;;;;;;;5.70;5.10;;;;;;;16.31;53.00;101916.44;5105709;28;20176;-66
2021/09/20 08:12:36;;;;;;;5.27;4.77;;;;;;;15.69;53.17;101927.44;5120418;28;20207;-65
2021/09/20 08:15:01;;;;;;;6.93;5.17;;;;;;;15.62;53.52;101921.25;5117149;28;20400;-65
2021/09/20 08:17:27;;;;;;;5.60;5.10;;;;;;;16.15;52.85;101919.88;5086412;28;20176;-66
2021/09/20 08:19:52;;;;;;;6.50;5.80;;;;;;;16.67;52.87;101922.75;5079949;28;20587;-66
2021/09/20 08:22:17;;;;;;;6.73;4.70;;;;;;;16.28;53.05;101928.72;5080406;28;20183;-65
2021/09/20 08:24:43;;;;;;;5.80;4.93;;;;;;;15.87;53.61;101927.63;5108379;28;20183;-64
2021/09/20 08:27:08;;;;;;;5.30;4.80;;;;;;;16.22;51.48;101920.78;5114399;28;20499;-63
2021/09/20 08:29:34;;;;;;;5.13;4.73;;;;;;;16.38;51.29;101927.88;5090124;28;20181;-64
2021/09/20 08:31:59;;;;;;;7.10;5.13;;;;;;;16.43;50.86;101917.38;5080584;28;20197;-64
2021/09/20 08:34:24;;;;;;;5.30;4.80;;;;;;;17.33;49.33;101923.75;5080068;28;20515;-65
2021/09/20 08:36:50;;;;;;;4.93;4.43;;;;;;;17.40;48.12;101925.53;5080165;28;20275;-66
2021/09/20 08:39:16;;;;;;;4.90;4.40;;;;;;;17.73;47.14;101928.16;5080547;28;20184;-65
2021/09/20 08:41:41;;;;;;;6.33;4.30;;;;;;;17.89;46.56;101923.72;5088556;28;20167;-65
2021/09/20 08:44:09;;;;;;;5.87;4.17;;;;;;;17.82;45.08;101922.88;5097272;28;20180;-64
2021/09/20 08:46:36;;;;;;;5.80;4.67;;;;;;;17.26;47.06;101936.06;5100117;28;20179;-64
2021/09/20 08:49:02;;;;;;;5.90;4.10;;;;;;;17.17;47.56;101942.22;5100317;28;20680;-65
2021/09/20 08:51:27;;;;;;;7.00;4.33;;;;;;;17.92;46.62;101937.81;5082104;28;20455;-65
2021/09/20 08:53:52;;;;;;;5.70;4.70;;;;;;;17.26;46.63;101941.31;5100479;28;20164;-62
2021/09/20 08:56:18;;;;;;;4.80;4.40;;;;;;;16.51;49.08;101947.25;5082681;28;20261;-64
2021/09/20 08:58:43;;;;;;;4.70;4.20;;;;;;;17.57;47.26;101936.06;5099664;28;20176;-65
2021/09/20 09:01:09;;;;;;;6.30;4.47;;;;;;;16.02;50.55;101946.97;5100496;28;20251;-66
2021/09/20 09:03:34;;;;;;;5.20;4.70;;;;;;;15.88;51.31;101953.03;5099619;28;20187;-65
2021/09/20 09:06:00;;;;;;;5.03;4.50;;;;;;;15.32;53.13;101964.81;5100152;28;20177;-65
2021/09/20 09:08:40;;;;;;;5.00;4.60;;;;;;;15.51;53.96;101959.72;5099917;28;20209;-65
2021/09/20 09:11:15;;;;;;;7.83;5.50;;;;;;;15.23;54.14;101960.31;5099661;28;20229;-64
2021/09/20 09:13:43;;;;;;;6.37;4.73;;;;;;;15.95;53.67;101959.19;5099763;28;20426;-64
2021/09/20 09:16:15;;;;;;;6.43;5.00;;;;;;;15.57;54.04;101965.00;5115457;28;20400;-66
2021/09/20 09:19:19;;;;;;;5.43;4.93;;;;;;;16.14;53.49;101963.72;5102472;28;20687;-63
2021/09/20 09:21:45;;;;;;;5.67;5.10;;;;;;;16.00;53.73;101968.88;5016503;28;20480;-63
2021/09/20 09:24:20;;;;;;;5.10;4.70;;;;;;;16.37;52.83;101970.84;4998513;28;20504;-63
2021/09/20 09:26:55;;;;;;;7.60;4.83;;;;;;;15.56;54.96;101968.50;5045398;28;20503;-63
2021/09/20 09:29:21;;;;;;;5.10;4.60;;;;;;;16.08;53.86;101963.69;5079349;28;20425;-65
2021/09/20 09:31:52;;;;;;;5.73;4.53;;;;;;;16.14;53.79;101970.72;5078410;28;20459;-65
2021/09/20 09:34:24;;;;;;;5.00;4.53;;;;;;;16.17;53.39;101969.00;5079108;28;20598;-66
2021/09/20 09:36:49;;;;;;;10.13;5.37;;;;;;;15.40;55.81;101967.50;5079331;28;20694;-65
2021/09/20 09:39:26;;;;;;;7.03;4.93;;;;;;;15.55;55.83;101961.50;5078930;28;20429;-67
2021/09/20 09:41:51;;;;;;;5.90;4.93;;;;;;;16.29;53.68;101964.66;5079146;28;20168;-65
2021/09/20 09:44:18;;;;;;;7.67;5.20;;;;;;;15.44;55.74;101971.94;5091219;28;20444;-66
2021/09/20 09:46:46;;;;;;;5.07;4.57;;;;;;;14.78;56.86;101978.22;5102602;28;20174;-65
2021/09/20 09:49:12;;;;;;;6.57;5.23;;;;;;;16.45;53.55;101974.44;5083650;28;20418;-65
2021/09/20 09:52:01;;;;;;;5.10;4.70;;;;;;;15.65;55.50;101971.22;5100514;28;20478;-65
2021/09/20 09:54:30;;;;;;;5.20;4.80;;;;;;;14.76;58.08;101972.09;5101251;28;20690;-64
2021/09/20 09:57:16;;;;;;;6.70;5.40;;;;;;;17.05;52.50;101971.16;5097979;28;20414;-66
2021/09/20 09:59:42;;;;;;;7.97;6.37;;;;;;;16.90;51.95;101971.09;5084483;28;20478;-66
2021/09/20 10:02:24;;;;;;;5.57;5.07;;;;;;;16.55;54.08;101970.09;5086223;28;20454;-65
2021/09/20 10:05:01;;;;;;;5.60;5.10;;;;;;;17.75;50.29;101964.22;5088787;28;20215;-65
2021/09/20 10:07:34;;;;;;;6.10;5.50;;;;;;;17.53;49.41;101963.31;5098938;28;20517;-65
2021/09/20 10:10:03;;;;;;;8.40;5.17;;;;;;;16.45;52.33;101981.44;5093330;28;20423;-66
2021/09/20 10:12:29;;;;;;;5.33;4.90;;;;;;;15.88;54.27;101983.72;5078682;28;20467;-64
2021/09/20 10:14:57;;;;;;;5.67;4.77;;;;;;;16.97;51.79;101968.50;5089105;28;20449;-67
2021/09/20 10:17:26;;;;;;;5.10;4.40;;;;;;;16.84;50.62;101958.78;5119339;28;20388;-65
2021/09/20 10:19:52;;;;;;;5.80;4.23;;;;;;;15.74;53.75;101979.19;5119730;28;20424;-64
2021/09/20 10:22:19;;;;;;;5.70;4.80;;;;;;;16.06;53.17;101973.31;5104464;28;20465;-62
2021/09/20 10:24:48;;;;;;;5.27;4.80;;;;;;;15.47;54.15;101980.69;5072633;28;20419;-64
2021/09/20 10:27:15;;;;;;;4.80;4.40;;;;;;;15.65;54.18;101964.22;5068080;28;20425;-63
2021/09/20 10:29:45;;;;;;;5.30;4.90;;;;;;;15.70;53.93;101968.66;5087697;28;20732;-63
2021/09/20 10:32:11;;;;;;;5.90;4.90;;;;;;;16.94;51.03;101962.34;5066571;28;20744;-62
2021/09/20 10:34:37;;;;;;;5.53;4.90;;;;;;;16.96;50.33;101972.00;5071311;28;20426;-63
2021/09/20 10:37:13;;;;;;;5.40;4.90;;;;;;;16.51;52.01;101965.69;5063917;28;20427;-63
2021/09/20 10:39:52;;;;;;;6.43;4.57;;;;;;;16.07;53.00;101967.16;5094605;28;20200;-62
2021/09/20 10:42:36;;;;;;;5.60;4.90;;;;;;;14.76;56.11;101974.72;5084640;28;20486;-63
2021/09/20 10:45:05;;;;;;;5.33;4.83;;;;;;;15.22;55.77;101976.06;5098292;28;20425;-63
2021/09/20 10:47:44;;;;;;;9.07;4.67;;;;;;;15.14;56.44;101971.63;5092502;28;20418;-64
2021/09/20 10:50:09;;;;;;;4.83;4.43;;;;;;;16.18;54.18;101972.50;5088987;28;20418;-64
2021/09/20 10:52:35;;;;;;;5.60;5.10;;;;;;;17.05;51.06;101960.63;5098112;28;20993;-65
2021/09/20 10:55:08;;;;;;;5.90;4.83;;;;;;;17.07;50.82;101958.88;5094529;28;20197;-65
2021/09/20 10:57:34;;;;;;;7.23;5.60;;;;;;;16.96;50.46;101968.50;5087703;28;20419;-64
2021/09/20 11:00:25;;;;;;;7.63;5.00;;;;;;;15.97;53.05;101965.38;5085453;28;20413;-64
2021/09/20 11:02:50;;;;;;;5.43;5.00;;;;;;;17.08;50.54;101957.13;5094789;28;20502;-64
2021/09/20 11:05:16;;;;;;;5.63;5.10;;;;;;;17.53;49.20;101957.19;5098095;28;20447;-65
2021/09/20 11:07:46;;;;;;;5.60;4.93;;;;;;;16.21;52.46;101967.28;5080351;28;20172;-66
2021/09/20 11:10:12;;;;;;;8.83;5.33;;;;;;;16.14;52.70;101963.72;5097759;28;20537;-65
2021/09/20 11:13:00;;;;;;;5.63;5.03;;;;;;;16.69;51.35;101961.38;5063880;28;20461;-65
2021/09/20 11:15:26;;;;;;;5.40;4.90;;;;;;;16.90;51.19;101958.84;5107373;28;20205;-65
2021/09/20 11:17:52;;;;;;;5.23;4.73;;;;;;;18.09;47.50;101953.63;5118459;28;20413;-66
2021/09/20 11:20:35;;;;;;;5.87;5.00;;;;;;;18.64;45.86;101949.91;5118206;28;20178;-65
2021/09/20 11:23:29;;;;;;;6.13;4.60;;;;;;;17.22;49.74;101954.50;5077407;28;20204;-66